aviador You're here:

KEHR Decoded Metar

HENDERSON CITY in KY, USA
Report Time2017-05-22 18:56:00
UTC Time2017-05-22 19:22:20
Flight Rules vfr VFR
WindCalm
Visibility9999 m
Phenomena:N/A
Clouds:N/A
Expected CloudBase > 4,800 ft AGL from Temp-Dew spread
CeilingNone
Temp21°C (ISA +7)
Dew Point09°C (46% RH)
AAT20.8°C
QNH1019 hPa
Density Alt1,129 ft
Elevation384 ft
Report Wrong Elevation
Raw Report
METAR KEHR 221856Z AUTO 00000KT 10SM CLR 21/09 A3008 RMK AO2 SLP195
T02110094=

Extra information for KEHR:More info

Metar Taf Metar & Taf Last 4 Metars F.Rules Stats Wind Profile Meteogram Temp Stats Airport Information Weather charts Add Link Nearby VenuesMetar ALERT Operation Metar Decoded Social comments

AIRNAV info for KEHR